createdAt,value
2022-11-10T00:01:00.855Z,74.18
2022-11-10T00:03:30.260Z,73.81
2022-11-10T00:05:55.155Z,73.77
2022-11-10T00:08:21.437Z,73.72
2022-11-10T00:11:02.363Z,74.05
2022-11-10T00:13:36.631Z,73.98
2022-11-10T00:16:20.522Z,74.21
2022-11-10T00:18:49.363Z,74.81
2022-11-10T00:21:16.776Z,74.63
2022-11-10T00:23:42.748Z,75.08
2022-11-10T00:26:17.316Z,75.25
2022-11-10T00:28:45.754Z,75.64
2022-11-10T00:31:15.309Z,75.98
2022-11-10T00:33:41.743Z,75.73
2022-11-10T00:36:07.871Z,75.51
2022-11-10T00:38:33.795Z,75.34
2022-11-10T00:40:59.104Z,75.56
2022-11-10T00:43:26.713Z,75.97
2022-11-10T00:45:56.428Z,75.59
2022-11-10T00:48:21.939Z,75.59
2022-11-10T00:50:47.041Z,75.72
2022-11-10T00:53:13.023Z,75.97
2022-11-10T00:55:40.517Z,75.78
2022-11-10T00:58:05.682Z,76.11
2022-11-10T01:00:31.549Z,75.77
2022-11-10T01:02:59.677Z,75.51
2022-11-10T01:05:25.594Z,75.52
2022-11-10T01:07:52.185Z,75.95
2022-11-10T01:10:17.441Z,75.74
2022-11-10T01:12:42.535Z,75.57
2022-11-10T01:15:09.736Z,75.30
2022-11-10T01:17:35.209Z,75.18
2022-11-10T01:20:02.868Z,75.14
2022-11-10T01:22:28.586Z,74.99
2022-11-10T01:24:53.790Z,75.59
2022-11-10T01:27:18.940Z,75.46
2022-11-10T01:29:44.761Z,75.64
2022-11-10T01:32:09.559Z,75.52
2022-11-10T01:34:34.547Z,75.56
2022-11-10T01:37:02.896Z,75.63
2022-11-10T01:39:28.906Z,75.71
2022-11-10T01:41:53.759Z,75.74
2022-11-10T01:44:25.008Z,76.05
2022-11-10T01:46:50.369Z,76.02
2022-11-10T01:49:18.999Z,75.46
2022-11-10T01:51:54.134Z,76.05
2022-11-10T01:54:29.730Z,75.99
2022-11-10T01:57:03.438Z,76.31
2022-11-10T01:59:33.711Z,76.24
2022-11-10T02:02:13.046Z,76.68
2022-11-10T02:04:40.398Z,76.87
2022-11-10T02:07:06.385Z,77.37
2022-11-10T02:09:34.242Z,77.75
2022-11-10T02:12:01.097Z,77.41
2022-11-10T02:14:30.905Z,77.54
2022-11-10T02:16:56.363Z,77.82
2022-11-10T02:19:25.463Z,77.97
2022-11-10T02:21:55.276Z,77.96
2022-11-10T02:24:21.965Z,77.38
2022-11-10T02:26:54.101Z,77.41
2022-11-10T02:29:20.518Z,77.13
2022-11-10T02:31:46.026Z,77.30
2022-11-10T02:34:10.781Z,76.89
2022-11-10T02:36:37.466Z,76.41
2022-11-10T02:39:05.790Z,76.25
2022-11-10T02:41:33.763Z,76.08
2022-11-10T02:44:07.415Z,76.39
2022-11-10T02:46:32.823Z,75.58
2022-11-10T02:49:01.359Z,76.31
2022-11-10T02:51:26.304Z,76.19
2022-11-10T02:53:51.509Z,76.33
2022-11-10T02:56:22.391Z,76.32
2022-11-10T02:58:47.357Z,76.18
2022-11-10T03:01:12.474Z,75.69
2022-11-10T03:03:39.189Z,75.62
2022-11-10T03:06:04.142Z,75.77
2022-11-10T03:08:29.365Z,75.78
2022-11-10T03:10:58.700Z,75.25
2022-11-10T03:13:35.649Z,75.25
2022-11-10T03:16:13.175Z,76.15
2022-11-10T03:18:37.762Z,76.04
2022-11-10T03:21:02.604Z,76.22
2022-11-10T03:23:28.488Z,76.19
2022-11-10T03:25:53.800Z,76.13
2022-11-10T03:28:20.323Z,76.01
2022-11-10T03:30:49.335Z,76.62
2022-11-10T03:33:16.419Z,76.09
2022-11-10T03:35:41.459Z,75.94
2022-11-10T03:38:07.856Z,76.10
2022-11-10T03:40:56.854Z,76.57
2022-11-10T03:43:18.984Z,75.78
2022-11-10T03:45:49.227Z,75.96
2022-11-10T03:48:14.237Z,76.56
2022-11-10T03:50:39.493Z,76.71
2022-11-10T03:53:06.577Z,76.85
2022-11-10T03:55:32.041Z,77.00
2022-11-10T03:57:59.612Z,76.53
2022-11-10T04:00:25.407Z,76.66
2022-11-10T04:02:53.135Z,76.06
2022-11-10T04:05:30.382Z,75.61
2022-11-10T04:08:14.323Z,75.26
2022-11-10T04:10:40.454Z,75.80
2022-11-10T04:13:18.793Z,76.20
2022-11-10T04:15:46.888Z,76.02
2022-11-10T04:18:24.936Z,75.69
2022-11-10T04:20:50.606Z,75.86
2022-11-10T04:23:29.380Z,76.22
2022-11-10T04:26:06.418Z,76.04
2022-11-10T04:28:33.008Z,75.77
2022-11-10T04:31:00.504Z,75.88
2022-11-10T04:33:28.064Z,75.96
2022-11-10T04:35:54.048Z,76.53
2022-11-10T04:38:19.290Z,76.13
2022-11-10T04:40:46.399Z,76.77
2022-11-10T04:43:15.033Z,76.34
2022-11-10T04:45:39.932Z,76.49
2022-11-10T04:48:04.825Z,76.58
2022-11-10T04:50:33.564Z,76.64
2022-11-10T04:52:58.732Z,76.41
2022-11-10T04:55:25.154Z,76.55
2022-11-10T04:57:51.392Z,75.95
2022-11-10T05:00:18.894Z,75.92
2022-11-10T05:02:44.198Z,75.61
2022-11-10T05:05:11.964Z,76.16
2022-11-10T05:07:39.421Z,75.69
2022-11-10T05:10:04.167Z,75.82
2022-11-10T05:12:30.296Z,75.76
2022-11-10T05:14:56.319Z,75.95
2022-11-10T05:17:24.338Z,76.09
2022-11-10T05:19:51.439Z,76.06
2022-11-10T05:22:17.166Z,76.06
2022-11-10T05:24:44.928Z,76.34
2022-11-10T05:27:11.450Z,76.23
2022-11-10T05:29:36.405Z,75.96
2022-11-10T05:32:01.566Z,75.92
2022-11-10T05:34:27.433Z,75.61
2022-11-10T05:36:53.971Z,76.12
2022-11-10T05:39:18.764Z,75.69
2022-11-10T05:41:48.076Z,75.62
2022-11-10T05:44:13.019Z,75.69
2022-11-10T05:46:37.709Z,75.32
2022-11-10T05:49:03.535Z,75.77
2022-11-10T05:51:28.790Z,75.08
2022-11-10T05:53:53.790Z,75.33
2022-11-10T05:56:19.920Z,75.26
2022-11-10T05:58:47.625Z,75.79
2022-11-10T06:01:12.826Z,76.07
2022-11-10T06:03:39.018Z,76.25
2022-11-10T06:06:03.903Z,76.46
2022-11-10T06:08:35.202Z,76.47
2022-11-10T06:11:09.013Z,77.07
2022-11-10T06:13:34.612Z,77.16
2022-11-10T06:16:03.611Z,76.94
2022-11-10T06:18:29.799Z,76.88
2022-11-10T06:20:55.352Z,77.32
2022-11-10T06:23:21.206Z,77.18
2022-11-10T06:25:47.725Z,78.48
2022-11-10T06:28:15.061Z,78.87
2022-11-10T06:30:42.227Z,78.82
2022-11-10T06:33:10.969Z,79.34
2022-11-10T06:35:36.433Z,79.36
2022-11-10T06:38:03.513Z,79.36
2022-11-10T06:40:29.649Z,79.89
2022-11-10T06:42:57.987Z,80.05
2022-11-10T06:45:28.722Z,80.18
2022-11-10T06:48:10.800Z,79.74
2022-11-10T06:50:39.259Z,79.82
2022-11-10T06:53:05.330Z,80.50
2022-11-10T06:55:30.690Z,80.18
2022-11-10T06:57:55.735Z,80.15
2022-11-10T07:00:24.171Z,79.94
2022-11-10T07:02:49.165Z,80.02
2022-11-10T07:05:19.839Z,79.51
2022-11-10T07:07:48.131Z,79.92
2022-11-10T07:10:13.395Z,80.17
2022-11-10T07:12:38.345Z,79.62
2022-11-10T07:15:04.209Z,79.74
2022-11-10T07:17:28.700Z,78.88
2022-11-10T07:19:53.698Z,78.81
2022-11-10T07:22:20.037Z,78.54
2022-11-10T07:24:47.553Z,78.74
2022-11-10T07:27:12.483Z,78.37
2022-11-10T07:29:48.136Z,77.98
2022-11-10T07:32:12.778Z,78.16
2022-11-10T07:34:44.686Z,78.75
2022-11-10T07:37:10.211Z,78.43
2022-11-10T07:39:35.211Z,79.44
2022-11-10T07:42:03.695Z,78.90
2022-11-10T07:44:28.741Z,78.23
2022-11-10T07:46:53.649Z,78.44
2022-11-10T07:49:19.221Z,77.82
2022-11-10T07:51:46.213Z,77.71
2022-11-10T07:54:11.018Z,77.41
2022-11-10T07:56:42.720Z,77.76
2022-11-10T07:59:14.975Z,78.73
2022-11-10T08:01:40.686Z,79.06
2022-11-10T08:04:05.387Z,78.86
2022-11-10T08:06:34.904Z,78.67
2022-11-10T08:09:04.920Z,78.51
2022-11-10T08:11:32.740Z,78.45
2022-11-10T08:14:00.630Z,78.36
2022-11-10T08:16:42.312Z,78.13
2022-11-10T08:19:20.289Z,78.23
2022-11-10T08:21:46.221Z,77.86
2022-11-10T08:24:17.146Z,77.94
2022-11-10T08:26:45.602Z,77.82
2022-11-10T08:29:10.241Z,77.61
2022-11-10T08:31:38.184Z,77.71
2022-11-10T08:34:07.856Z,77.53
2022-11-10T08:36:32.713Z,77.62
2022-11-10T08:39:00.050Z,77.39
2022-11-10T08:41:44.715Z,77.33
2022-11-10T08:44:19.601Z,76.92
2022-11-10T08:46:53.939Z,76.84
2022-11-10T08:49:23.342Z,76.58
2022-11-10T08:51:48.135Z,76.07
2022-11-10T08:54:14.116Z,76.08
2022-11-10T08:56:39.107Z,75.75
2022-11-10T08:59:03.787Z,76.16
2022-11-10T09:01:29.781Z,75.99
2022-11-10T09:03:54.575Z,76.62
2022-11-10T09:06:31.556Z,76.00
2022-11-10T09:08:56.660Z,75.02
2022-11-10T09:11:21.296Z,75.45
2022-11-10T09:13:45.863Z,75.24
2022-11-10T09:16:12.060Z,75.37
2022-11-10T09:18:36.958Z,75.64
2022-11-10T09:21:05.217Z,76.01
2022-11-10T09:24:08.540Z,76.40
2022-11-10T09:26:36.608Z,76.33
2022-11-10T09:29:01.926Z,75.76
2022-11-10T09:31:26.682Z,74.92
2022-11-10T09:34:08.613Z,74.90
2022-11-10T09:36:36.327Z,74.54
2022-11-10T09:39:01.386Z,75.11
2022-11-10T09:41:30.117Z,74.61
2022-11-10T09:44:14.781Z,74.34
2022-11-10T09:46:49.048Z,74.44
2022-11-10T09:49:39.801Z,74.41
2022-11-10T09:52:12.177Z,74.81
2022-11-10T09:55:02.117Z,74.93
2022-11-10T09:57:30.176Z,74.99
2022-11-10T09:59:59.217Z,75.13
2022-11-10T10:02:40.770Z,74.98
2022-11-10T10:05:51.863Z,75.00
2022-11-10T10:08:35.593Z,75.25
2022-11-10T10:11:26.861Z,74.59
2022-11-10T10:14:27.911Z,74.63
2022-11-10T10:17:07.498Z,74.30
2022-11-10T10:19:58.256Z,74.56
2022-11-10T10:22:54.226Z,74.08
2022-11-10T10:25:32.598Z,73.97
2022-11-10T10:28:15.482Z,73.57
2022-11-10T10:30:40.461Z,74.07
2022-11-10T10:33:20.210Z,73.68
2022-11-10T10:35:54.468Z,72.82
2022-11-10T10:38:29.822Z,71.95
2022-11-10T10:41:00.410Z,71.74
2022-11-10T10:43:27.506Z,71.53
2022-11-10T10:46:10.887Z,71.88
2022-11-10T10:48:47.789Z,70.88
2022-11-10T10:51:33.613Z,70.40
2022-11-10T10:54:00.193Z,70.19
2022-11-10T10:56:35.086Z,70.20
2022-11-10T10:59:09.439Z,70.08
2022-11-10T11:01:37.382Z,70.03
2022-11-10T11:04:30.471Z,69.87
2022-11-10T11:07:02.765Z,69.43
2022-11-10T11:09:33.011Z,69.09
2022-11-10T11:12:09.889Z,68.88
2022-11-10T11:14:40.627Z,68.87
2022-11-10T11:17:23.321Z,69.22
2022-11-10T11:20:02.538Z,68.18
2022-11-10T11:23:02.558Z,68.63
2022-11-10T11:25:42.816Z,68.48
2022-11-10T11:28:31.726Z,67.36
2022-11-10T11:31:18.858Z,66.88
2022-11-10T11:33:56.702Z,65.78
2022-11-10T11:36:45.826Z,66.03
2022-11-10T11:39:36.614Z,65.52
2022-11-10T11:42:49.033Z,64.97
2022-11-10T11:45:27.670Z,64.88
2022-11-10T11:48:29.780Z,64.18
2022-11-10T11:51:36.510Z,62.67
2022-11-10T11:54:36.476Z,62.89
2022-11-10T11:57:24.116Z,62.75
2022-11-10T12:00:09.788Z,62.19
2022-11-10T12:03:07.882Z,61.87
2022-11-10T12:05:49.253Z,62.68
2022-11-10T12:08:31.471Z,62.88
2022-11-10T12:11:16.171Z,63.04
2022-11-10T12:13:55.404Z,63.17
2022-11-10T12:16:29.165Z,62.64
2022-11-10T12:19:19.152Z,63.16
2022-11-10T12:21:57.264Z,62.06
2022-11-10T12:24:54.154Z,60.70
2022-11-10T12:27:36.371Z,58.46
2022-11-10T12:30:12.984Z,56.43
2022-11-10T12:32:57.900Z,54.88
2022-11-10T12:35:29.501Z,52.86
2022-11-10T12:38:06.959Z,51.52
2022-11-10T12:40:42.151Z,51.16
2022-11-10T12:43:26.801Z,49.59
2022-11-10T12:46:00.871Z,49.40
2022-11-10T12:48:46.190Z,48.91
2022-11-10T12:51:25.832Z,49.62
2022-11-10T12:53:56.528Z,48.66
2022-11-10T12:56:32.475Z,48.37
2022-11-10T12:59:35.263Z,48.14
2022-11-10T13:02:14.403Z,48.90
2022-11-10T13:04:50.766Z,50.42
2022-11-10T13:07:17.171Z,50.74
2022-11-10T13:09:47.421Z,51.55
2022-11-10T13:12:32.383Z,52.46
2022-11-10T13:15:00.421Z,52.99
2022-11-10T13:17:58.479Z,53.94
2022-11-10T13:20:56.156Z,54.32
2022-11-10T13:23:36.099Z,54.52
2022-11-10T13:26:05.981Z,56.14
2022-11-10T13:29:23.863Z,57.69
2022-11-10T13:31:59.977Z,57.29
2022-11-10T13:34:35.530Z,58.06
2022-11-10T13:37:02.426Z,58.23
2022-11-10T13:39:53.029Z,58.27
2022-11-10T13:42:32.292Z,58.67
2022-11-10T13:45:21.732Z,59.15
2022-11-10T13:48:10.632Z,59.25
2022-11-10T13:50:57.301Z,58.78
2022-11-10T13:53:46.366Z,57.95
2022-11-10T13:56:41.624Z,57.54
2022-11-10T13:59:27.973Z,56.17
2022-11-10T14:01:53.030Z,55.99
2022-11-10T14:04:49.165Z,56.73
2022-11-10T14:07:22.864Z,56.72
2022-11-10T14:09:53.646Z,55.62
2022-11-10T14:12:34.369Z,56.36
2022-11-10T14:15:08.175Z,55.74
2022-11-10T14:17:42.952Z,55.96
2022-11-10T14:20:37.969Z,56.35
2022-11-10T14:23:32.233Z,56.26
2022-11-10T14:26:05.612Z,56.13
2022-11-10T14:28:33.836Z,55.69
2022-11-10T14:31:01.891Z,55.91
2022-11-10T14:33:29.812Z,56.32
2022-11-10T14:36:10.423Z,56.44
2022-11-10T14:38:37.478Z,62.29
2022-11-10T14:41:07.498Z,63.85
2022-11-10T14:43:35.833Z,64.09
2022-11-10T14:46:05.176Z,64.56
2022-11-10T14:48:36.773Z,65.76
2022-11-10T14:51:16.270Z,66.49
2022-11-10T14:53:51.925Z,67.27
2022-11-10T14:56:27.051Z,68.19
2022-11-10T14:58:54.466Z,68.25
2022-11-10T15:01:33.960Z,68.03
2022-11-10T15:04:00.438Z,68.41
2022-11-10T15:06:30.139Z,68.60
2022-11-10T15:08:55.097Z,69.40
2022-11-10T15:11:42.781Z,70.17
2022-11-10T15:14:39.837Z,70.45
2022-11-10T15:17:05.037Z,70.17
2022-11-10T15:19:35.260Z,70.44
2022-11-10T15:22:16.288Z,71.22
2022-11-10T15:24:45.746Z,71.61
2022-11-10T15:27:25.703Z,72.01
2022-11-10T15:29:51.308Z,70.93
2022-11-10T15:32:23.114Z,70.91
2022-11-10T15:34:49.914Z,71.20
2022-11-10T15:37:31.676Z,71.62
2022-11-10T15:40:33.313Z,72.08
2022-11-10T15:43:12.492Z,71.67
2022-11-10T15:45:37.072Z,71.79
2022-11-10T15:48:03.107Z,72.49
2022-11-10T15:50:28.008Z,71.76
2022-11-10T15:52:56.081Z,71.87
2022-11-10T15:55:26.564Z,72.13
2022-11-10T15:57:51.289Z,72.15
2022-11-10T16:00:19.485Z,71.79
2022-11-10T16:02:46.537Z,71.88
2022-11-10T16:05:16.085Z,71.53
2022-11-10T16:07:44.872Z,71.96
2022-11-10T16:10:12.795Z,71.55
2022-11-10T16:12:39.330Z,72.32
2022-11-10T16:15:06.591Z,72.48
2022-11-10T16:17:31.688Z,72.17
2022-11-10T16:19:56.844Z,71.70
2022-11-10T16:22:22.871Z,71.62
2022-11-10T16:24:47.962Z,71.20
2022-11-10T16:27:18.799Z,71.76
2022-11-10T16:29:46.304Z,72.16
2022-11-10T16:32:13.979Z,71.91
2022-11-10T16:34:39.036Z,71.97
2022-11-10T16:37:05.263Z,71.89
2022-11-10T16:39:30.666Z,71.78
2022-11-10T16:41:55.720Z,71.56
2022-11-10T16:44:25.478Z,72.08
2022-11-10T16:46:57.652Z,72.12
2022-11-10T16:49:34.472Z,72.48
2022-11-10T16:51:59.532Z,71.99
2022-11-10T16:54:25.087Z,72.11
2022-11-10T16:56:50.192Z,72.41
2022-11-10T16:59:15.089Z,72.00
2022-11-10T17:01:47.515Z,71.98
2022-11-10T17:04:16.878Z,71.93
2022-11-10T17:06:43.724Z,71.88
2022-11-10T17:09:18.760Z,71.55
2022-11-10T17:11:44.669Z,71.29
2022-11-10T17:14:10.126Z,71.56
2022-11-10T17:16:39.220Z,71.57
2022-11-10T17:19:10.981Z,72.03
2022-11-10T17:21:39.937Z,71.68
2022-11-10T17:24:08.084Z,71.85
2022-11-10T17:26:34.538Z,71.62
2022-11-10T17:28:59.444Z,71.55
2022-11-10T17:31:25.047Z,72.24
2022-11-10T17:33:49.785Z,72.44
2022-11-10T17:36:24.322Z,71.81
2022-11-10T17:38:50.294Z,72.47
2022-11-10T17:41:20.920Z,72.10
2022-11-10T17:43:46.310Z,71.62
2022-11-10T17:46:12.516Z,71.57
2022-11-10T17:48:48.031Z,71.84
2022-11-10T17:51:26.067Z,71.69
2022-11-10T17:53:52.192Z,72.04
2022-11-10T17:56:18.468Z,71.98
2022-11-10T17:58:43.628Z,71.66
2022-11-10T18:01:17.745Z,71.20
2022-11-10T18:03:46.247Z,71.05
2022-11-10T18:06:11.855Z,71.12
2022-11-10T18:08:39.744Z,70.80
2022-11-10T18:11:05.476Z,70.24
2022-11-10T18:13:30.267Z,70.01
2022-11-10T18:16:01.717Z,69.77
2022-11-10T18:18:27.695Z,69.41
2022-11-10T18:20:54.331Z,68.91
2022-11-10T18:23:19.443Z,69.44
2022-11-10T18:25:47.556Z,69.34
2022-11-10T18:28:17.331Z,69.11
2022-11-10T18:30:42.881Z,69.01
2022-11-10T18:33:10.390Z,69.05
2022-11-10T18:35:38.720Z,69.09
2022-11-10T18:38:03.364Z,69.31
2022-11-10T18:40:28.824Z,68.63
2022-11-10T18:43:07.140Z,68.80
2022-11-10T18:45:33.174Z,68.45
2022-11-10T18:48:03.239Z,68.31
2022-11-10T18:50:27.920Z,68.21
2022-11-10T18:52:53.635Z,67.66
2022-11-10T18:55:20.383Z,67.32
2022-11-10T18:57:45.217Z,67.23
2022-11-10T19:00:19.094Z,67.12
2022-11-10T19:02:46.386Z,67.02
2022-11-10T19:05:12.977Z,66.26
2022-11-10T19:07:37.623Z,66.22
2022-11-10T19:10:02.912Z,66.27
2022-11-10T19:12:28.841Z,66.06
2022-11-10T19:14:54.249Z,65.91
2022-11-10T19:17:22.225Z,66.09
2022-11-10T19:19:52.047Z,65.90
2022-11-10T19:22:20.573Z,65.77
2022-11-10T19:25:06.612Z,65.82
2022-11-10T19:27:31.768Z,65.86
2022-11-10T19:29:56.680Z,65.63
2022-11-10T19:32:25.160Z,65.66
2022-11-10T19:34:50.460Z,65.41
2022-11-10T19:37:21.340Z,65.67
2022-11-10T19:39:46.299Z,65.17
2022-11-10T19:42:12.025Z,65.38
2022-11-10T19:44:37.526Z,65.67
2022-11-10T19:47:02.772Z,66.03
2022-11-10T19:49:31.008Z,65.70
2022-11-10T19:51:55.906Z,65.99
2022-11-10T19:54:20.543Z,65.77
2022-11-10T19:56:46.352Z,65.83
2022-11-10T19:59:13.166Z,66.00
2022-11-10T20:01:38.266Z,66.07
2022-11-10T20:04:06.219Z,66.88
2022-11-10T20:06:34.991Z,66.63
2022-11-10T20:09:00.841Z,67.03
2022-11-10T20:11:29.836Z,67.27
2022-11-10T20:13:59.558Z,67.24
2022-11-10T20:16:25.582Z,68.22
2022-11-10T20:18:51.298Z,68.85
2022-11-10T20:21:21.253Z,69.32
2022-11-10T20:23:48.904Z,69.50
2022-11-10T20:26:17.705Z,70.13
2022-11-10T20:28:44.118Z,70.35
2022-11-10T20:31:13.004Z,70.61
2022-11-10T20:33:41.579Z,70.27
2022-11-10T20:36:20.780Z,70.37
2022-11-10T20:38:54.230Z,70.34
2022-11-10T20:41:23.013Z,70.03
2022-11-10T20:43:49.389Z,69.86
2022-11-10T20:49:12.654Z,70.01
2022-11-10T20:51:40.291Z,70.43
2022-11-10T20:54:07.494Z,70.90
2022-11-10T20:56:33.011Z,70.96
2022-11-10T20:58:57.224Z,71.03
2022-11-10T21:01:36.665Z,70.78
2022-11-10T21:04:11.138Z,70.87
2022-11-10T21:06:35.394Z,71.15
2022-11-10T21:08:59.868Z,71.35
2022-11-10T21:11:54.549Z,71.48
2022-11-10T21:14:18.923Z,72.08
2022-11-10T21:16:44.379Z,72.27
2022-11-10T21:19:13.994Z,72.28
2022-11-10T21:21:38.549Z,72.23
2022-11-10T21:24:11.047Z,72.32
2022-11-10T21:26:43.185Z,73.04
2022-11-10T21:29:09.731Z,73.47
2022-11-10T21:31:38.851Z,73.77
2022-11-10T21:34:03.956Z,73.45
2022-11-10T21:36:30.274Z,73.72
2022-11-10T21:38:54.458Z,73.41
2022-11-10T21:41:18.904Z,73.63
2022-11-10T21:43:46.757Z,73.54
2022-11-10T21:46:11.738Z,73.76
2022-11-10T21:48:35.981Z,73.43
2022-11-10T21:51:04.102Z,72.79
2022-11-10T21:53:36.343Z,72.47
2022-11-10T21:56:02.770Z,72.61
2022-11-10T21:58:29.773Z,72.17
2022-11-10T22:01:04.835Z,72.59
2022-11-10T22:03:31.458Z,72.50
2022-11-10T22:05:55.650Z,72.51
2022-11-10T22:08:22.321Z,72.44
2022-11-10T22:11:00.099Z,72.54
2022-11-10T22:13:37.137Z,72.28
2022-11-10T22:16:24.368Z,72.75
2022-11-10T22:18:49.852Z,72.39
2022-11-10T22:21:16.088Z,71.97
2022-11-10T22:23:56.516Z,71.93
2022-11-10T22:26:22.808Z,72.14
2022-11-10T22:28:48.540Z,72.21
2022-11-10T22:31:16.144Z,72.36
2022-11-10T22:33:44.548Z,71.93
2022-11-10T22:36:15.448Z,72.03
2022-11-10T22:38:45.197Z,72.79
2022-11-10T22:41:29.048Z,72.63
2022-11-10T22:44:08.171Z,72.44
2022-11-10T22:46:39.633Z,72.85
2022-11-10T22:49:04.651Z,72.26
2022-11-10T22:51:32.729Z,72.42
2022-11-10T22:53:57.794Z,72.06
2022-11-10T22:56:23.745Z,72.42
2022-11-10T22:58:48.543Z,72.21
2022-11-10T23:01:15.711Z,72.74
2022-11-10T23:03:44.246Z,72.57
2022-11-10T23:06:09.565Z,73.90
2022-11-10T23:08:35.994Z,73.70
2022-11-10T23:11:02.585Z,74.04
2022-11-10T23:13:26.667Z,74.85
2022-11-10T23:15:54.449Z,74.29
2022-11-10T23:18:19.109Z,74.62
2022-11-10T23:20:46.429Z,75.25
2022-11-10T23:23:11.793Z,75.17
2022-11-10T23:25:38.482Z,74.79
2022-11-10T23:28:02.859Z,74.99
2022-11-10T23:30:28.149Z,75.32
2022-11-10T23:32:52.796Z,75.32
2022-11-10T23:35:17.107Z,75.74
2022-11-10T23:37:45.011Z,75.85
2022-11-10T23:40:12.294Z,75.22
2022-11-10T23:42:36.549Z,75.28
2022-11-10T23:45:02.000Z,75.72
2022-11-10T23:47:28.788Z,74.90
2022-11-10T23:49:52.959Z,74.83
2022-11-10T23:52:19.516Z,74.70
2022-11-10T23:54:46.677Z,74.37
2022-11-10T23:57:11.408Z,74.41
2022-11-10T23:59:36.548Z,74.68
